sensor_id;sensor_type;location;lat;lon;timestamp;P1;durP1;ratioP1;P2;durP2;ratioP2
61709;SDS011;47633;51.494;5.386;2022-11-20T00:00:45;5.88;;;3.75;;
61709;SDS011;47633;51.494;5.386;2022-11-20T00:03:10;5.53;;;3.53;;
61709;SDS011;47633;51.494;5.386;2022-11-20T00:05:35;5.95;;;3.60;;
61709;SDS011;47633;51.494;5.386;2022-11-20T00:08:00;5.23;;;3.40;;
61709;SDS011;47633;51.494;5.386;2022-11-20T00:10:26;5.10;;;3.40;;
61709;SDS011;47633;51.494;5.386;2022-11-20T00:12:51;7.32;;;3.78;;
61709;SDS011;47633;51.494;5.386;2022-11-20T00:15:16;5.50;;;3.50;;
61709;SDS011;47633;51.494;5.386;2022-11-20T00:17:42;5.57;;;3.23;;
61709;SDS011;47633;51.494;5.386;2022-11-20T00:20:07;4.97;;;3.10;;
61709;SDS011;47633;51.494;5.386;2022-11-20T00:22:33;5.75;;;3.60;;
61709;SDS011;47633;51.494;5.386;2022-11-20T00:24:58;5.17;;;3.33;;
61709;SDS011;47633;51.494;5.386;2022-11-20T00:27:23;5.47;;;3.50;;
61709;SDS011;47633;51.494;5.386;2022-11-20T00:29:48;5.10;;;3.38;;
61709;SDS011;47633;51.494;5.386;2022-11-20T00:32:14;5.55;;;3.50;;
61709;SDS011;47633;51.494;5.386;2022-11-20T00:34:39;5.50;;;3.47;;
61709;SDS011;47633;51.494;5.386;2022-11-20T00:37:04;5.80;;;3.45;;
61709;SDS011;47633;51.494;5.386;2022-11-20T00:39:29;4.93;;;3.37;;
61709;SDS011;47633;51.494;5.386;2022-11-20T00:41:55;5.37;;;3.60;;
61709;SDS011;47633;51.494;5.386;2022-11-20T00:44:20;5.18;;;3.40;;
61709;SDS011;47633;51.494;5.386;2022-11-20T00:46:45;5.90;;;3.85;;
61709;SDS011;47633;51.494;5.386;2022-11-20T00:49:10;5.33;;;3.73;;
61709;SDS011;47633;51.494;5.386;2022-11-20T00:51:36;5.90;;;3.60;;
61709;SDS011;47633;51.494;5.386;2022-11-20T00:54:01;4.70;;;3.40;;
61709;SDS011;47633;51.494;5.386;2022-11-20T00:56:27;5.13;;;3.42;;
61709;SDS011;47633;51.494;5.386;2022-11-20T00:58:53;6.00;;;3.67;;
61709;SDS011;47633;51.494;5.386;2022-11-20T01:01:20;6.00;;;3.72;;
61709;SDS011;47633;51.494;5.386;2022-11-20T01:03:49;5.25;;;3.40;;
61709;SDS011;47633;51.494;5.386;2022-11-20T01:06:19;5.05;;;3.42;;
61709;SDS011;47633;51.494;5.386;2022-11-20T01:08:50;4.95;;;3.38;;
61709;SDS011;47633;51.494;5.386;2022-11-20T01:11:17;6.88;;;3.40;;
61709;SDS011;47633;51.494;5.386;2022-11-20T01:14:03;5.38;;;3.72;;
61709;SDS011;47633;51.494;5.386;2022-11-20T01:16:32;4.85;;;3.08;;
61709;SDS011;47633;51.494;5.386;2022-11-20T01:19:02;5.15;;;3.30;;
61709;SDS011;47633;51.494;5.386;2022-11-20T01:21:31;4.95;;;3.33;;
61709;SDS011;47633;51.494;5.386;2022-11-20T01:23:58;6.15;;;3.80;;
61709;SDS011;47633;51.494;5.386;2022-11-20T01:26:28;5.72;;;3.72;;
61709;SDS011;47633;51.494;5.386;2022-11-20T01:28:55;5.22;;;3.35;;
61709;SDS011;47633;51.494;5.386;2022-11-20T01:31:28;5.75;;;3.40;;
61709;SDS011;47633;51.494;5.386;2022-11-20T01:33:55;5.73;;;3.70;;
61709;SDS011;47633;51.494;5.386;2022-11-20T01:36:23;4.85;;;3.20;;
61709;SDS011;47633;51.494;5.386;2022-11-20T01:38:54;5.55;;;3.17;;
61709;SDS011;47633;51.494;5.386;2022-11-20T01:41:22;5.32;;;3.63;;
61709;SDS011;47633;51.494;5.386;2022-11-20T01:44:08;5.50;;;3.63;;
61709;SDS011;47633;51.494;5.386;2022-11-20T01:46:35;5.28;;;3.70;;
61709;SDS011;47633;51.494;5.386;2022-11-20T01:51:58;5.80;;;3.63;;
61709;SDS011;47633;51.494;5.386;2022-11-20T01:54:30;6.25;;;3.63;;
61709;SDS011;47633;51.494;5.386;2022-11-20T01:57:02;5.50;;;3.67;;
61709;SDS011;47633;51.494;5.386;2022-11-20T01:59:31;6.18;;;4.10;;
61709;SDS011;47633;51.494;5.386;2022-11-20T02:01:56;5.55;;;3.83;;
61709;SDS011;47633;51.494;5.386;2022-11-20T02:04:21;5.40;;;3.50;;
61709;SDS011;47633;51.494;5.386;2022-11-20T02:06:48;6.15;;;4.15;;
61709;SDS011;47633;51.494;5.386;2022-11-20T02:09:18;6.03;;;3.88;;
61709;SDS011;47633;51.494;5.386;2022-11-20T02:11:43;6.00;;;4.00;;
61709;SDS011;47633;51.494;5.386;2022-11-20T02:14:08;6.18;;;3.88;;
61709;SDS011;47633;51.494;5.386;2022-11-20T02:16:39;5.47;;;3.70;;
61709;SDS011;47633;51.494;5.386;2022-11-20T02:19:16;5.72;;;3.80;;
61709;SDS011;47633;51.494;5.386;2022-11-20T02:24:46;5.65;;;3.80;;
61709;SDS011;47633;51.494;5.386;2022-11-20T02:27:14;6.30;;;4.18;;
61709;SDS011;47633;51.494;5.386;2022-11-20T02:29:49;5.72;;;3.90;;
61709;SDS011;47633;51.494;5.386;2022-11-20T02:34:50;6.72;;;3.65;;
61709;SDS011;47633;51.494;5.386;2022-11-20T02:37:16;6.03;;;4.07;;
61709;SDS011;47633;51.494;5.386;2022-11-20T02:39:43;5.28;;;3.67;;
61709;SDS011;47633;51.494;5.386;2022-11-20T02:42:10;6.38;;;4.22;;
61709;SDS011;47633;51.494;5.386;2022-11-20T02:44:36;6.00;;;4.03;;
61709;SDS011;47633;51.494;5.386;2022-11-20T02:47:01;5.95;;;4.00;;
61709;SDS011;47633;51.494;5.386;2022-11-20T02:49:26;5.93;;;4.07;;
61709;SDS011;47633;51.494;5.386;2022-11-20T02:51:52;6.43;;;3.90;;
61709;SDS011;47633;51.494;5.386;2022-11-20T02:54:17;5.63;;;3.72;;
61709;SDS011;47633;51.494;5.386;2022-11-20T02:56:42;6.47;;;3.90;;
61709;SDS011;47633;51.494;5.386;2022-11-20T02:59:08;5.45;;;3.80;;
61709;SDS011;47633;51.494;5.386;2022-11-20T03:01:33;5.72;;;4.20;;
61709;SDS011;47633;51.494;5.386;2022-11-20T03:03:59;5.60;;;3.50;;
61709;SDS011;47633;51.494;5.386;2022-11-20T03:06:24;6.00;;;3.92;;
61709;SDS011;47633;51.494;5.386;2022-11-20T03:08:49;5.10;;;3.55;;
61709;SDS011;47633;51.494;5.386;2022-11-20T03:11:14;5.40;;;3.80;;
61709;SDS011;47633;51.494;5.386;2022-11-20T03:13:41;5.68;;;3.75;;
61709;SDS011;47633;51.494;5.386;2022-11-20T03:16:08;5.80;;;3.80;;
61709;SDS011;47633;51.494;5.386;2022-11-20T03:18:35;6.70;;;4.00;;
61709;SDS011;47633;51.494;5.386;2022-11-20T03:21:00;5.68;;;3.92;;
61709;SDS011;47633;51.494;5.386;2022-11-20T03:23:25;5.00;;;3.53;;
61709;SDS011;47633;51.494;5.386;2022-11-20T03:25:51;5.80;;;3.70;;
61709;SDS011;47633;51.494;5.386;2022-11-20T03:28:16;5.75;;;4.20;;
61709;SDS011;47633;51.494;5.386;2022-11-20T03:30:41;5.60;;;3.73;;
61709;SDS011;47633;51.494;5.386;2022-11-20T03:33:06;5.55;;;3.90;;
61709;SDS011;47633;51.494;5.386;2022-11-20T03:35:32;6.85;;;3.90;;
61709;SDS011;47633;51.494;5.386;2022-11-20T03:37:57;6.13;;;4.10;;
61709;SDS011;47633;51.494;5.386;2022-11-20T03:40:23;6.57;;;4.00;;
61709;SDS011;47633;51.494;5.386;2022-11-20T03:42:48;5.03;;;3.70;;
61709;SDS011;47633;51.494;5.386;2022-11-20T03:45:14;6.22;;;3.70;;
61709;SDS011;47633;51.494;5.386;2022-11-20T03:47:41;5.70;;;3.80;;
61709;SDS011;47633;51.494;5.386;2022-11-20T03:50:07;7.07;;;4.47;;
61709;SDS011;47633;51.494;5.386;2022-11-20T03:52:33;6.18;;;4.25;;
61709;SDS011;47633;51.494;5.386;2022-11-20T03:54:58;5.18;;;3.65;;
61709;SDS011;47633;51.494;5.386;2022-11-20T03:57:24;6.03;;;4.20;;
61709;SDS011;47633;51.494;5.386;2022-11-20T03:59:49;6.00;;;4.18;;
61709;SDS011;47633;51.494;5.386;2022-11-20T04:02:14;5.95;;;3.75;;
61709;SDS011;47633;51.494;5.386;2022-11-20T04:04:39;5.82;;;4.13;;
61709;SDS011;47633;51.494;5.386;2022-11-20T04:07:05;6.32;;;4.50;;
61709;SDS011;47633;51.494;5.386;2022-11-20T04:09:30;6.90;;;4.23;;
61709;SDS011;47633;51.494;5.386;2022-11-20T04:11:55;6.13;;;4.40;;
61709;SDS011;47633;51.494;5.386;2022-11-20T04:14:20;5.40;;;3.72;;
61709;SDS011;47633;51.494;5.386;2022-11-20T04:16:46;5.63;;;4.17;;
61709;SDS011;47633;51.494;5.386;2022-11-20T04:19:12;6.50;;;4.38;;
61709;SDS011;47633;51.494;5.386;2022-11-20T04:21:39;6.35;;;4.38;;
61709;SDS011;47633;51.494;5.386;2022-11-20T04:24:04;5.97;;;3.90;;
61709;SDS011;47633;51.494;5.386;2022-11-20T04:26:30;5.18;;;3.47;;
61709;SDS011;47633;51.494;5.386;2022-11-20T04:28:56;6.57;;;4.15;;
61709;SDS011;47633;51.494;5.386;2022-11-20T04:31:23;6.38;;;4.03;;
61709;SDS011;47633;51.494;5.386;2022-11-20T04:33:50;6.68;;;4.70;;
61709;SDS011;47633;51.494;5.386;2022-11-20T04:36:17;6.95;;;4.13;;
61709;SDS011;47633;51.494;5.386;2022-11-20T04:38:44;5.65;;;3.90;;
61709;SDS011;47633;51.494;5.386;2022-11-20T04:41:14;5.63;;;4.00;;
61709;SDS011;47633;51.494;5.386;2022-11-20T04:43:41;6.53;;;4.50;;
61709;SDS011;47633;51.494;5.386;2022-11-20T04:46:12;5.85;;;4.20;;
61709;SDS011;47633;51.494;5.386;2022-11-20T04:48:37;6.27;;;4.20;;
61709;SDS011;47633;51.494;5.386;2022-11-20T04:51:03;6.33;;;4.10;;
61709;SDS011;47633;51.494;5.386;2022-11-20T04:53:29;6.03;;;4.65;;
61709;SDS011;47633;51.494;5.386;2022-11-20T04:55:58;5.40;;;3.95;;
61709;SDS011;47633;51.494;5.386;2022-11-20T04:58:27;5.68;;;4.30;;
61709;SDS011;47633;51.494;5.386;2022-11-20T05:00:53;5.95;;;4.18;;
61709;SDS011;47633;51.494;5.386;2022-11-20T05:03:18;6.10;;;4.50;;
61709;SDS011;47633;51.494;5.386;2022-11-20T05:05:44;6.13;;;4.22;;
61709;SDS011;47633;51.494;5.386;2022-11-20T05:08:09;5.85;;;4.10;;
61709;SDS011;47633;51.494;5.386;2022-11-20T05:10:34;5.75;;;4.13;;
61709;SDS011;47633;51.494;5.386;2022-11-20T05:12:59;5.90;;;4.30;;
61709;SDS011;47633;51.494;5.386;2022-11-20T05:15:25;6.23;;;4.53;;
61709;SDS011;47633;51.494;5.386;2022-11-20T05:17:50;6.30;;;4.25;;
61709;SDS011;47633;51.494;5.386;2022-11-20T05:20:17;6.10;;;4.00;;
61709;SDS011;47633;51.494;5.386;2022-11-20T05:22:43;6.15;;;4.25;;
61709;SDS011;47633;51.494;5.386;2022-11-20T05:25:09;6.22;;;4.20;;
61709;SDS011;47633;51.494;5.386;2022-11-20T05:27:35;6.60;;;4.03;;
61709;SDS011;47633;51.494;5.386;2022-11-20T05:30:00;6.18;;;4.30;;
61709;SDS011;47633;51.494;5.386;2022-11-20T05:32:25;6.88;;;4.50;;
61709;SDS011;47633;51.494;5.386;2022-11-20T05:34:53;5.53;;;3.97;;
61709;SDS011;47633;51.494;5.386;2022-11-20T05:37:18;6.72;;;4.30;;
61709;SDS011;47633;51.494;5.386;2022-11-20T05:39:44;6.57;;;4.57;;
61709;SDS011;47633;51.494;5.386;2022-11-20T05:42:09;6.22;;;4.53;;
61709;SDS011;47633;51.494;5.386;2022-11-20T05:44:53;6.93;;;4.63;;
61709;SDS011;47633;51.494;5.386;2022-11-20T05:47:18;6.30;;;4.13;;
61709;SDS011;47633;51.494;5.386;2022-11-20T05:49:44;6.22;;;4.07;;
61709;SDS011;47633;51.494;5.386;2022-11-20T05:52:09;5.97;;;4.18;;
61709;SDS011;47633;51.494;5.386;2022-11-20T05:54:34;5.68;;;3.92;;
61709;SDS011;47633;51.494;5.386;2022-11-20T05:57:00;5.57;;;3.80;;
61709;SDS011;47633;51.494;5.386;2022-11-20T05:59:25;5.78;;;3.83;;
61709;SDS011;47633;51.494;5.386;2022-11-20T06:01:50;6.13;;;3.60;;
61709;SDS011;47633;51.494;5.386;2022-11-20T06:04:15;5.23;;;3.10;;
61709;SDS011;47633;51.494;5.386;2022-11-20T06:06:41;5.33;;;3.40;;
61709;SDS011;47633;51.494;5.386;2022-11-20T06:09:06;5.20;;;3.63;;
61709;SDS011;47633;51.494;5.386;2022-11-20T06:11:31;5.55;;;3.75;;
61709;SDS011;47633;51.494;5.386;2022-11-20T06:13:57;5.60;;;3.25;;
61709;SDS011;47633;51.494;5.386;2022-11-20T06:16:22;5.47;;;3.30;;
61709;SDS011;47633;51.494;5.386;2022-11-20T06:18:47;4.53;;;3.05;;
61709;SDS011;47633;51.494;5.386;2022-11-20T06:21:14;4.82;;;3.35;;
61709;SDS011;47633;51.494;5.386;2022-11-20T06:23:41;5.25;;;3.47;;
61709;SDS011;47633;51.494;5.386;2022-11-20T06:26:08;4.90;;;3.40;;
61709;SDS011;47633;51.494;5.386;2022-11-20T06:28:38;5.38;;;3.08;;
61709;SDS011;47633;51.494;5.386;2022-11-20T06:31:04;4.85;;;3.28;;
61709;SDS011;47633;51.494;5.386;2022-11-20T06:33:31;5.47;;;3.70;;
61709;SDS011;47633;51.494;5.386;2022-11-20T06:36:00;7.03;;;3.95;;
61709;SDS011;47633;51.494;5.386;2022-11-20T06:38:26;5.30;;;3.55;;
61709;SDS011;47633;51.494;5.386;2022-11-20T06:40:52;5.57;;;3.63;;
61709;SDS011;47633;51.494;5.386;2022-11-20T06:43:17;5.65;;;3.13;;
61709;SDS011;47633;51.494;5.386;2022-11-20T06:45:42;5.68;;;3.38;;
61709;SDS011;47633;51.494;5.386;2022-11-20T06:48:08;5.38;;;3.53;;
61709;SDS011;47633;51.494;5.386;2022-11-20T06:50:34;5.35;;;3.47;;
61709;SDS011;47633;51.494;5.386;2022-11-20T06:53:01;5.22;;;3.25;;
61709;SDS011;47633;51.494;5.386;2022-11-20T06:55:28;5.35;;;3.08;;
61709;SDS011;47633;51.494;5.386;2022-11-20T06:57:53;4.80;;;3.00;;
61709;SDS011;47633;51.494;5.386;2022-11-20T07:00:18;5.97;;;3.50;;
61709;SDS011;47633;51.494;5.386;2022-11-20T07:02:44;5.45;;;3.15;;
61709;SDS011;47633;51.494;5.386;2022-11-20T07:05:09;5.32;;;3.65;;
61709;SDS011;47633;51.494;5.386;2022-11-20T07:07:34;5.30;;;2.83;;
61709;SDS011;47633;51.494;5.386;2022-11-20T07:09:59;4.72;;;3.25;;
61709;SDS011;47633;51.494;5.386;2022-11-20T07:12:25;4.60;;;3.20;;
61709;SDS011;47633;51.494;5.386;2022-11-20T07:14:50;5.60;;;3.53;;
61709;SDS011;47633;51.494;5.386;2022-11-20T07:17:15;5.20;;;3.33;;
61709;SDS011;47633;51.494;5.386;2022-11-20T07:19:40;5.10;;;3.30;;
61709;SDS011;47633;51.494;5.386;2022-11-20T07:22:07;5.32;;;3.38;;
61709;SDS011;47633;51.494;5.386;2022-11-20T07:24:33;5.72;;;3.47;;
61709;SDS011;47633;51.494;5.386;2022-11-20T07:26:58;5.33;;;3.60;;
61709;SDS011;47633;51.494;5.386;2022-11-20T07:29:23;4.80;;;3.13;;
61709;SDS011;47633;51.494;5.386;2022-11-20T07:31:49;5.38;;;3.70;;
61709;SDS011;47633;51.494;5.386;2022-11-20T07:34:14;5.28;;;3.30;;
61709;SDS011;47633;51.494;5.386;2022-11-20T07:36:39;6.80;;;3.90;;
61709;SDS011;47633;51.494;5.386;2022-11-20T07:39:05;7.85;;;4.40;;
61709;SDS011;47633;51.494;5.386;2022-11-20T07:41:30;5.30;;;3.70;;
61709;SDS011;47633;51.494;5.386;2022-11-20T07:43:56;5.72;;;4.00;;
61709;SDS011;47633;51.494;5.386;2022-11-20T07:46:21;5.45;;;3.63;;
61709;SDS011;47633;51.494;5.386;2022-11-20T07:48:46;4.93;;;3.10;;
61709;SDS011;47633;51.494;5.386;2022-11-20T07:51:11;7.13;;;3.63;;
61709;SDS011;47633;51.494;5.386;2022-11-20T07:53:38;5.72;;;3.38;;
61709;SDS011;47633;51.494;5.386;2022-11-20T07:56:03;5.22;;;3.42;;
61709;SDS011;47633;51.494;5.386;2022-11-20T07:58:29;5.90;;;4.03;;
61709;SDS011;47633;51.494;5.386;2022-11-20T08:00:55;5.13;;;3.33;;
61709;SDS011;47633;51.494;5.386;2022-11-20T08:03:21;5.55;;;3.20;;
61709;SDS011;47633;51.494;5.386;2022-11-20T08:05:46;5.07;;;3.00;;
61709;SDS011;47633;51.494;5.386;2022-11-20T08:08:11;6.15;;;3.25;;
61709;SDS011;47633;51.494;5.386;2022-11-20T08:10:36;5.63;;;4.00;;
61709;SDS011;47633;51.494;5.386;2022-11-20T08:13:02;7.20;;;5.03;;
61709;SDS011;47633;51.494;5.386;2022-11-20T08:15:49;7.33;;;4.73;;
61709;SDS011;47633;51.494;5.386;2022-11-20T08:18:18;6.40;;;3.95;;
61709;SDS011;47633;51.494;5.386;2022-11-20T08:20:44;6.60;;;3.63;;
61709;SDS011;47633;51.494;5.386;2022-11-20T08:23:10;6.60;;;3.55;;
61709;SDS011;47633;51.494;5.386;2022-11-20T08:25:36;5.30;;;3.35;;
61709;SDS011;47633;51.494;5.386;2022-11-20T08:28:03;5.40;;;3.47;;
61709;SDS011;47633;51.494;5.386;2022-11-20T08:30:30;5.32;;;3.63;;
61709;SDS011;47633;51.494;5.386;2022-11-20T08:33:00;6.00;;;3.70;;
61709;SDS011;47633;51.494;5.386;2022-11-20T08:35:28;8.38;;;3.78;;
61709;SDS011;47633;51.494;5.386;2022-11-20T08:37:53;6.60;;;3.63;;
61709;SDS011;47633;51.494;5.386;2022-11-20T08:40:18;6.97;;;3.85;;
61709;SDS011;47633;51.494;5.386;2022-11-20T08:42:47;6.47;;;3.97;;
61709;SDS011;47633;51.494;5.386;2022-11-20T08:45:13;5.47;;;3.75;;
61709;SDS011;47633;51.494;5.386;2022-11-20T08:47:38;5.20;;;3.08;;
61709;SDS011;47633;51.494;5.386;2022-11-20T08:50:04;5.70;;;3.40;;
61709;SDS011;47633;51.494;5.386;2022-11-20T08:52:29;5.20;;;3.40;;
61709;SDS011;47633;51.494;5.386;2022-11-20T08:54:54;5.60;;;3.43;;
61709;SDS011;47633;51.494;5.386;2022-11-20T08:57:20;5.22;;;3.55;;
61709;SDS011;47633;51.494;5.386;2022-11-20T08:59:45;5.10;;;3.22;;
61709;SDS011;47633;51.494;5.386;2022-11-20T09:02:10;5.72;;;3.35;;
61709;SDS011;47633;51.494;5.386;2022-11-20T09:04:36;6.68;;;3.80;;
61709;SDS011;47633;51.494;5.386;2022-11-20T09:07:02;5.80;;;3.75;;
61709;SDS011;47633;51.494;5.386;2022-11-20T09:09:27;5.68;;;3.33;;
61709;SDS011;47633;51.494;5.386;2022-11-20T09:11:53;7.55;;;3.50;;
61709;SDS011;47633;51.494;5.386;2022-11-20T09:14:18;6.38;;;4.00;;
61709;SDS011;47633;51.494;5.386;2022-11-20T09:16:44;5.82;;;3.58;;
61709;SDS011;47633;51.494;5.386;2022-11-20T09:19:10;5.68;;;3.47;;
61709;SDS011;47633;51.494;5.386;2022-11-20T09:21:35;6.90;;;3.60;;
61709;SDS011;47633;51.494;5.386;2022-11-20T09:24:01;5.60;;;3.90;;
61709;SDS011;47633;51.494;5.386;2022-11-20T09:26:26;6.65;;;3.58;;
61709;SDS011;47633;51.494;5.386;2022-11-20T09:28:51;6.55;;;3.60;;
61709;SDS011;47633;51.494;5.386;2022-11-20T09:31:19;6.30;;;3.90;;
61709;SDS011;47633;51.494;5.386;2022-11-20T09:33:48;6.15;;;3.65;;
61709;SDS011;47633;51.494;5.386;2022-11-20T09:36:13;6.60;;;3.92;;
61709;SDS011;47633;51.494;5.386;2022-11-20T09:38:39;6.68;;;4.32;;
61709;SDS011;47633;51.494;5.386;2022-11-20T09:41:05;6.47;;;3.63;;
61709;SDS011;47633;51.494;5.386;2022-11-20T09:43:49;7.50;;;4.35;;
61709;SDS011;47633;51.494;5.386;2022-11-20T09:46:49;8.18;;;4.28;;
61709;SDS011;47633;51.494;5.386;2022-11-20T09:55:18;8.13;;;4.82;;
61709;SDS011;47633;51.494;5.386;2022-11-20T09:57:44;7.20;;;4.50;;
61709;SDS011;47633;51.494;5.386;2022-11-20T10:00:13;8.65;;;5.00;;
61709;SDS011;47633;51.494;5.386;2022-11-20T10:02:47;7.88;;;4.53;;
61709;SDS011;47633;51.494;5.386;2022-11-20T10:05:18;7.97;;;4.95;;
61709;SDS011;47633;51.494;5.386;2022-11-20T10:11:24;8.32;;;4.72;;
61709;SDS011;47633;51.494;5.386;2022-11-20T10:13:56;8.15;;;4.80;;
61709;SDS011;47633;51.494;5.386;2022-11-20T10:21:41;7.45;;;4.80;;
61709;SDS011;47633;51.494;5.386;2022-11-20T10:24:38;7.82;;;4.63;;
61709;SDS011;47633;51.494;5.386;2022-11-20T10:30:06;11.02;;;6.00;;
61709;SDS011;47633;51.494;5.386;2022-11-20T10:32:36;7.97;;;5.10;;
61709;SDS011;47633;51.494;5.386;2022-11-20T10:37:29;8.80;;;5.40;;
61709;SDS011;47633;51.494;5.386;2022-11-20T10:40:00;8.57;;;5.53;;
61709;SDS011;47633;51.494;5.386;2022-11-20T10:42:40;8.50;;;4.95;;
61709;SDS011;47633;51.494;5.386;2022-11-20T10:47:48;9.13;;;6.07;;
61709;SDS011;47633;51.494;5.386;2022-11-20T10:50:16;8.75;;;5.78;;
61709;SDS011;47633;51.494;5.386;2022-11-20T10:53:05;9.27;;;5.85;;
61709;SDS011;47633;51.494;5.386;2022-11-20T10:55:46;8.15;;;5.30;;
61709;SDS011;47633;51.494;5.386;2022-11-20T10:58:28;9.02;;;5.68;;
61709;SDS011;47633;51.494;5.386;2022-11-20T11:01:14;8.00;;;5.68;;
61709;SDS011;47633;51.494;5.386;2022-11-20T11:03:42;9.25;;;5.80;;
61709;SDS011;47633;51.494;5.386;2022-11-20T11:06:11;9.80;;;5.25;;
61709;SDS011;47633;51.494;5.386;2022-11-20T11:08:47;8.68;;;5.53;;
61709;SDS011;47633;51.494;5.386;2022-11-20T11:11:26;8.30;;;5.47;;
61709;SDS011;47633;51.494;5.386;2022-11-20T11:14:03;7.60;;;5.03;;
61709;SDS011;47633;51.494;5.386;2022-11-20T11:16:29;9.55;;;5.57;;
61709;SDS011;47633;51.494;5.386;2022-11-20T11:19:05;7.80;;;4.97;;
61709;SDS011;47633;51.494;5.386;2022-11-20T11:21:37;8.75;;;5.82;;
61709;SDS011;47633;51.494;5.386;2022-11-20T11:24:14;9.70;;;6.03;;
61709;SDS011;47633;51.494;5.386;2022-11-20T11:27:18;9.20;;;5.85;;
61709;SDS011;47633;51.494;5.386;2022-11-20T11:30:12;9.77;;;5.32;;
61709;SDS011;47633;51.494;5.386;2022-11-20T11:32:39;9.25;;;5.38;;
61709;SDS011;47633;51.494;5.386;2022-11-20T11:35:05;11.43;;;6.95;;
61709;SDS011;47633;51.494;5.386;2022-11-20T11:37:43;8.48;;;5.55;;
61709;SDS011;47633;51.494;5.386;2022-11-20T11:40:10;8.70;;;5.75;;
61709;SDS011;47633;51.494;5.386;2022-11-20T11:42:41;10.23;;;6.32;;
61709;SDS011;47633;51.494;5.386;2022-11-20T11:45:11;9.88;;;6.30;;
61709;SDS011;47633;51.494;5.386;2022-11-20T11:52:35;18.83;;;12.60;;
61709;SDS011;47633;51.494;5.386;2022-11-20T11:55:07;20.25;;;14.85;;
61709;SDS011;47633;51.494;5.386;2022-11-20T11:57:41;21.40;;;16.83;;
61709;SDS011;47633;51.494;5.386;2022-11-20T12:00:17;21.35;;;16.95;;
61709;SDS011;47633;51.494;5.386;2022-11-20T12:05:24;19.38;;;15.32;;
61709;SDS011;47633;51.494;5.386;2022-11-20T12:07:57;21.70;;;15.65;;
61709;SDS011;47633;51.494;5.386;2022-11-20T12:13:08;21.42;;;14.15;;
61709;SDS011;47633;51.494;5.386;2022-11-20T12:15:44;16.90;;;13.32;;
61709;SDS011;47633;51.494;5.386;2022-11-20T12:18:14;18.92;;;13.85;;
61709;SDS011;47633;51.494;5.386;2022-11-20T12:20:45;20.33;;;12.73;;
61709;SDS011;47633;51.494;5.386;2022-11-20T12:23:18;16.60;;;11.77;;
61709;SDS011;47633;51.494;5.386;2022-11-20T12:25:56;16.85;;;12.40;;
61709;SDS011;47633;51.494;5.386;2022-11-20T12:28:37;17.63;;;12.48;;
61709;SDS011;47633;51.494;5.386;2022-11-20T12:31:20;15.73;;;11.13;;
61709;SDS011;47633;51.494;5.386;2022-11-20T12:36:46;14.52;;;10.25;;
61709;SDS011;47633;51.494;5.386;2022-11-20T12:39:21;17.25;;;10.45;;
61709;SDS011;47633;51.494;5.386;2022-11-20T12:48:00;17.67;;;10.48;;
61709;SDS011;47633;51.494;5.386;2022-11-20T12:53:39;15.52;;;9.25;;
61709;SDS011;47633;51.494;5.386;2022-11-20T12:58:46;13.93;;;9.15;;
61709;SDS011;47633;51.494;5.386;2022-11-20T13:01:27;15.55;;;8.98;;
61709;SDS011;47633;51.494;5.386;2022-11-20T13:06:57;15.48;;;8.88;;
61709;SDS011;47633;51.494;5.386;2022-11-20T13:09:24;14.68;;;8.52;;
61709;SDS011;47633;51.494;5.386;2022-11-20T13:12:08;14.85;;;8.85;;
61709;SDS011;47633;51.494;5.386;2022-11-20T13:15:04;13.70;;;8.00;;
61709;SDS011;47633;51.494;5.386;2022-11-20T13:20:25;14.50;;;7.85;;
61709;SDS011;47633;51.494;5.386;2022-11-20T13:22:51;14.15;;;7.93;;
61709;SDS011;47633;51.494;5.386;2022-11-20T13:25:26;14.13;;;7.35;;
61709;SDS011;47633;51.494;5.386;2022-11-20T13:27:54;12.07;;;8.00;;
61709;SDS011;47633;51.494;5.386;2022-11-20T13:30:21;14.85;;;8.23;;
61709;SDS011;47633;51.494;5.386;2022-11-20T13:33:36;12.90;;;7.60;;
61709;SDS011;47633;51.494;5.386;2022-11-20T13:35:55;13.65;;;7.60;;
61709;SDS011;47633;51.494;5.386;2022-11-20T13:38:23;12.00;;;7.75;;
61709;SDS011;47633;51.494;5.386;2022-11-20T13:40:56;12.60;;;7.15;;
61709;SDS011;47633;51.494;5.386;2022-11-20T13:43:40;13.63;;;6.57;;
61709;SDS011;47633;51.494;5.386;2022-11-20T13:46:08;10.43;;;6.90;;
61709;SDS011;47633;51.494;5.386;2022-11-20T13:59:28;11.52;;;7.60;;
61709;SDS011;47633;51.494;5.386;2022-11-20T14:01:56;13.40;;;7.22;;
61709;SDS011;47633;51.494;5.386;2022-11-20T14:04:30;10.38;;;6.45;;
61709;SDS011;47633;51.494;5.386;2022-11-20T14:06:58;11.40;;;6.93;;
61709;SDS011;47633;51.494;5.386;2022-11-20T14:09:29;11.05;;;6.90;;
61709;SDS011;47633;51.494;5.386;2022-11-20T14:11:56;10.35;;;6.30;;
61709;SDS011;47633;51.494;5.386;2022-11-20T14:14:23;9.05;;;6.50;;
61709;SDS011;47633;51.494;5.386;2022-11-20T14:16:50;11.32;;;6.32;;
61709;SDS011;47633;51.494;5.386;2022-11-20T14:21:44;10.70;;;6.80;;
61709;SDS011;47633;51.494;5.386;2022-11-20T14:24:21;13.93;;;6.50;;
61709;SDS011;47633;51.494;5.386;2022-11-20T14:26:47;10.75;;;6.28;;
61709;SDS011;47633;51.494;5.386;2022-11-20T14:29:15;10.70;;;6.30;;
61709;SDS011;47633;51.494;5.386;2022-11-20T14:31:43;11.93;;;6.70;;
61709;SDS011;47633;51.494;5.386;2022-11-20T14:34:13;10.02;;;6.10;;
61709;SDS011;47633;51.494;5.386;2022-11-20T14:36:42;10.88;;;6.40;;
61709;SDS011;47633;51.494;5.386;2022-11-20T14:39:10;10.73;;;6.30;;
61709;SDS011;47633;51.494;5.386;2022-11-20T14:41:37;10.40;;;6.53;;
61709;SDS011;47633;51.494;5.386;2022-11-20T14:44:02;9.15;;;6.22;;
61709;SDS011;47633;51.494;5.386;2022-11-20T14:46:29;11.57;;;6.20;;
61709;SDS011;47633;51.494;5.386;2022-11-20T14:48:56;10.25;;;5.88;;
61709;SDS011;47633;51.494;5.386;2022-11-20T14:51:27;10.48;;;6.72;;
61709;SDS011;47633;51.494;5.386;2022-11-20T14:54:14;9.05;;;6.38;;
61709;SDS011;47633;51.494;5.386;2022-11-20T14:56:42;10.40;;;6.13;;
61709;SDS011;47633;51.494;5.386;2022-11-20T14:59:22;10.38;;;5.65;;
61709;SDS011;47633;51.494;5.386;2022-11-20T15:01:59;10.15;;;5.90;;
61709;SDS011;47633;51.494;5.386;2022-11-20T15:04:34;8.98;;;6.10;;
61709;SDS011;47633;51.494;5.386;2022-11-20T15:10:01;8.95;;;6.18;;
61709;SDS011;47633;51.494;5.386;2022-11-20T15:12:46;8.35;;;5.78;;
61709;SDS011;47633;51.494;5.386;2022-11-20T15:15:14;9.30;;;5.82;;
61709;SDS011;47633;51.494;5.386;2022-11-20T15:17:45;8.75;;;5.60;;
61709;SDS011;47633;51.494;5.386;2022-11-20T15:20:11;10.93;;;6.40;;
61709;SDS011;47633;51.494;5.386;2022-11-20T15:22:39;10.65;;;6.22;;
61709;SDS011;47633;51.494;5.386;2022-11-20T15:25:12;8.85;;;5.85;;
61709;SDS011;47633;51.494;5.386;2022-11-20T15:27:38;10.77;;;6.05;;
61709;SDS011;47633;51.494;5.386;2022-11-20T15:30:11;8.80;;;6.00;;
61709;SDS011;47633;51.494;5.386;2022-11-20T15:32:39;9.77;;;6.43;;
61709;SDS011;47633;51.494;5.386;2022-11-20T15:35:04;10.65;;;6.18;;
61709;SDS011;47633;51.494;5.386;2022-11-20T15:37:30;8.70;;;6.03;;
61709;SDS011;47633;51.494;5.386;2022-11-20T15:39:55;11.53;;;6.20;;
61709;SDS011;47633;51.494;5.386;2022-11-20T15:42:20;9.80;;;5.90;;
61709;SDS011;47633;51.494;5.386;2022-11-20T15:44:46;10.67;;;6.20;;
61709;SDS011;47633;51.494;5.386;2022-11-20T15:47:11;8.17;;;5.87;;
61709;SDS011;47633;51.494;5.386;2022-11-20T15:49:36;9.57;;;6.03;;
61709;SDS011;47633;51.494;5.386;2022-11-20T15:52:01;9.33;;;6.33;;
61709;SDS011;47633;51.494;5.386;2022-11-20T15:54:27;10.03;;;6.03;;
61709;SDS011;47633;51.494;5.386;2022-11-20T15:56:52;9.13;;;5.47;;
61709;SDS011;47633;51.494;5.386;2022-11-20T15:59:17;9.80;;;6.00;;
61709;SDS011;47633;51.494;5.386;2022-11-20T16:01:43;8.68;;;6.13;;
61709;SDS011;47633;51.494;5.386;2022-11-20T16:04:12;9.10;;;5.68;;
61709;SDS011;47633;51.494;5.386;2022-11-20T16:06:38;11.82;;;6.22;;
61709;SDS011;47633;51.494;5.386;2022-11-20T16:09:04;9.35;;;6.63;;
61709;SDS011;47633;51.494;5.386;2022-11-20T16:11:29;8.98;;;5.25;;